sensor_id;sensor_type;location;lat;lon;timestamp;P1;durP1;ratioP1;P2;durP2;ratioP2
49252;SDS011;35103;47.952;-1.502;2022-08-01T00:00:36;743.85;;;684.70;;
49252;SDS011;35103;47.952;-1.502;2022-08-01T00:03:03;749.10;;;687.38;;
49252;SDS011;35103;47.952;-1.502;2022-08-01T00:05:29;808.15;;;738.60;;
49252;SDS011;35103;47.952;-1.502;2022-08-01T00:07:55;746.95;;;690.55;;
49252;SDS011;35103;47.952;-1.502;2022-08-01T00:10:20;702.00;;;646.53;;
49252;SDS011;35103;47.952;-1.502;2022-08-01T00:12:46;738.35;;;680.35;;
49252;SDS011;35103;47.952;-1.502;2022-08-01T00:15:13;761.03;;;700.33;;
49252;SDS011;35103;47.952;-1.502;2022-08-01T00:17:40;718.15;;;660.58;;
49252;SDS011;35103;47.952;-1.502;2022-08-01T00:20:07;796.70;;;731.58;;
49252;SDS011;35103;47.952;-1.502;2022-08-01T00:22:34;742.83;;;681.50;;
49252;SDS011;35103;47.952;-1.502;2022-08-01T00:25:00;800.55;;;735.28;;
49252;SDS011;35103;47.952;-1.502;2022-08-01T00:27:27;809.13;;;739.75;;
49252;SDS011;35103;47.952;-1.502;2022-08-01T00:29:52;757.33;;;698.72;;
49252;SDS011;35103;47.952;-1.502;2022-08-01T00:32:18;666.97;;;613.60;;
49252;SDS011;35103;47.952;-1.502;2022-08-01T00:34:44;825.90;;;757.83;;
49252;SDS011;35103;47.952;-1.502;2022-08-01T00:37:09;690.05;;;636.60;;
49252;SDS011;35103;47.952;-1.502;2022-08-01T00:39:35;799.38;;;733.75;;
49252;SDS011;35103;47.952;-1.502;2022-08-01T00:42:05;740.30;;;682.35;;
49252;SDS011;35103;47.952;-1.502;2022-08-01T00:44:32;744.72;;;686.58;;
49252;SDS011;35103;47.952;-1.502;2022-08-01T00:46:57;790.28;;;725.58;;
49252;SDS011;35103;47.952;-1.502;2022-08-01T00:49:23;731.53;;;673.33;;
49252;SDS011;35103;47.952;-1.502;2022-08-01T00:51:48;771.67;;;710.38;;
49252;SDS011;35103;47.952;-1.502;2022-08-01T00:54:14;700.30;;;644.50;;
49252;SDS011;35103;47.952;-1.502;2022-08-01T00:56:40;850.72;;;780.50;;
49252;SDS011;35103;47.952;-1.502;2022-08-01T00:59:06;784.63;;;720.50;;
49252;SDS011;35103;47.952;-1.502;2022-08-01T01:01:33;776.45;;;712.88;;
49252;SDS011;35103;47.952;-1.502;2022-08-01T01:03:59;748.17;;;688.97;;
49252;SDS011;35103;47.952;-1.502;2022-08-01T01:06:26;759.17;;;696.72;;
49252;SDS011;35103;47.952;-1.502;2022-08-01T01:17:41;873.13;;;798.90;;
49252;SDS011;35103;47.952;-1.502;2022-08-01T01:20:15;750.22;;;689.80;;
49252;SDS011;35103;47.952;-1.502;2022-08-01T01:31:46;702.92;;;648.08;;
49252;SDS011;35103;47.952;-1.502;2022-08-01T01:34:15;663.97;;;612.28;;
49252;SDS011;35103;47.952;-1.502;2022-08-01T01:36:45;689.22;;;637.03;;
49252;SDS011;35103;47.952;-1.502;2022-08-01T01:39:13;749.30;;;689.30;;
49252;SDS011;35103;47.952;-1.502;2022-08-01T01:41:40;662.00;;;607.35;;
49252;SDS011;35103;47.952;-1.502;2022-08-01T01:44:09;712.47;;;657.13;;
49252;SDS011;35103;47.952;-1.502;2022-08-01T01:46:36;757.53;;;695.80;;
49252;SDS011;35103;47.952;-1.502;2022-08-01T01:49:02;754.10;;;694.08;;
49252;SDS011;35103;47.952;-1.502;2022-08-01T01:51:28;802.80;;;735.10;;
49252;SDS011;35103;47.952;-1.502;2022-08-01T01:53:55;771.75;;;710.05;;
49252;SDS011;35103;47.952;-1.502;2022-08-01T01:56:22;798.55;;;734.53;;
49252;SDS011;35103;47.952;-1.502;2022-08-01T01:58:53;771.97;;;707.45;;
49252;SDS011;35103;47.952;-1.502;2022-08-01T02:01:24;748.13;;;689.83;;
49252;SDS011;35103;47.952;-1.502;2022-08-01T02:03:53;789.75;;;725.10;;
49252;SDS011;35103;47.952;-1.502;2022-08-01T02:06:21;786.78;;;721.13;;
49252;SDS011;35103;47.952;-1.502;2022-08-01T02:08:48;820.97;;;749.47;;
49252;SDS011;35103;47.952;-1.502;2022-08-01T02:11:14;792.17;;;724.60;;
49252;SDS011;35103;47.952;-1.502;2022-08-01T02:13:39;796.28;;;730.53;;
49252;SDS011;35103;47.952;-1.502;2022-08-01T02:16:07;695.47;;;643.15;;
49252;SDS011;35103;47.952;-1.502;2022-08-01T02:18:34;765.05;;;702.53;;
49252;SDS011;35103;47.952;-1.502;2022-08-01T02:21:00;752.47;;;691.75;;
49252;SDS011;35103;47.952;-1.502;2022-08-01T02:23:31;686.83;;;633.47;;
49252;SDS011;35103;47.952;-1.502;2022-08-01T02:25:58;761.72;;;700.63;;
49252;SDS011;35103;47.952;-1.502;2022-08-01T02:28:31;742.40;;;683.55;;
49252;SDS011;35103;47.952;-1.502;2022-08-01T02:31:01;656.78;;;605.47;;
49252;SDS011;35103;47.952;-1.502;2022-08-01T02:33:33;765.08;;;703.03;;
49252;SDS011;35103;47.952;-1.502;2022-08-01T02:36:04;657.15;;;606.60;;
49252;SDS011;35103;47.952;-1.502;2022-08-01T02:38:32;738.60;;;678.90;;
49252;SDS011;35103;47.952;-1.502;2022-08-01T02:41:03;791.53;;;725.17;;
49252;SDS011;35103;47.952;-1.502;2022-08-01T02:43:30;766.90;;;704.78;;
49252;SDS011;35103;47.952;-1.502;2022-08-01T02:45:59;696.10;;;639.33;;
49252;SDS011;35103;47.952;-1.502;2022-08-01T02:48:27;665.50;;;613.35;;
49252;SDS011;35103;47.952;-1.502;2022-08-01T02:50:56;643.00;;;593.85;;
49252;SDS011;35103;47.952;-1.502;2022-08-01T02:53:24;728.05;;;669.08;;
49252;SDS011;35103;47.952;-1.502;2022-08-01T02:55:52;702.92;;;645.67;;
49252;SDS011;35103;47.952;-1.502;2022-08-01T02:58:18;723.08;;;663.45;;
49252;SDS011;35103;47.952;-1.502;2022-08-01T03:00:45;714.15;;;657.90;;
49252;SDS011;35103;47.952;-1.502;2022-08-01T03:03:12;748.70;;;686.30;;
49252;SDS011;35103;47.952;-1.502;2022-08-01T03:05:40;698.28;;;642.47;;
49252;SDS011;35103;47.952;-1.502;2022-08-01T03:08:07;707.22;;;649.55;;
49252;SDS011;35103;47.952;-1.502;2022-08-01T03:10:35;770.85;;;706.45;;
49252;SDS011;35103;47.952;-1.502;2022-08-01T03:13:03;623.80;;;575.63;;
49252;SDS011;35103;47.952;-1.502;2022-08-01T03:15:33;733.53;;;675.72;;
49252;SDS011;35103;47.952;-1.502;2022-08-01T03:18:02;675.72;;;623.15;;
49252;SDS011;35103;47.952;-1.502;2022-08-01T03:20:30;712.05;;;656.80;;
49252;SDS011;35103;47.952;-1.502;2022-08-01T03:22:57;690.45;;;634.92;;
49252;SDS011;35103;47.952;-1.502;2022-08-01T03:25:28;702.28;;;647.58;;
49252;SDS011;35103;47.952;-1.502;2022-08-01T03:27:56;677.72;;;625.53;;
49252;SDS011;35103;47.952;-1.502;2022-08-01T03:30:26;752.30;;;692.20;;
49252;SDS011;35103;47.952;-1.502;2022-08-01T03:32:53;700.55;;;647.47;;
49252;SDS011;35103;47.952;-1.502;2022-08-01T03:35:19;650.80;;;597.90;;
49252;SDS011;35103;47.952;-1.502;2022-08-01T03:37:47;726.53;;;666.30;;
49252;SDS011;35103;47.952;-1.502;2022-08-01T03:42:47;701.80;;;647.60;;
49252;SDS011;35103;47.952;-1.502;2022-08-01T03:45:25;618.00;;;570.85;;
49252;SDS011;35103;47.952;-1.502;2022-08-01T03:47:59;709.45;;;655.70;;
49252;SDS011;35103;47.952;-1.502;2022-08-01T03:50:27;623.10;;;577.40;;
49252;SDS011;35103;47.952;-1.502;2022-08-01T03:52:55;767.45;;;703.83;;
49252;SDS011;35103;47.952;-1.502;2022-08-01T03:55:23;645.25;;;594.30;;
49252;SDS011;35103;47.952;-1.502;2022-08-01T03:57:50;716.38;;;658.05;;
49252;SDS011;35103;47.952;-1.502;2022-08-01T04:00:16;627.70;;;578.53;;
49252;SDS011;35103;47.952;-1.502;2022-08-01T04:02:42;633.42;;;583.97;;
49252;SDS011;35103;47.952;-1.502;2022-08-01T04:05:08;670.25;;;619.33;;
49252;SDS011;35103;47.952;-1.502;2022-08-01T04:07:34;642.05;;;591.70;;
49252;SDS011;35103;47.952;-1.502;2022-08-01T04:09:59;696.58;;;640.33;;
49252;SDS011;35103;47.952;-1.502;2022-08-01T04:12:25;632.15;;;583.08;;
49252;SDS011;35103;47.952;-1.502;2022-08-01T04:14:50;603.97;;;556.50;;
49252;SDS011;35103;47.952;-1.502;2022-08-01T04:17:16;619.63;;;571.95;;
49252;SDS011;35103;47.952;-1.502;2022-08-01T04:19:42;665.88;;;615.35;;
49252;SDS011;35103;47.952;-1.502;2022-08-01T04:22:13;735.28;;;675.85;;
49252;SDS011;35103;47.952;-1.502;2022-08-01T04:24:39;733.30;;;674.83;;
49252;SDS011;35103;47.952;-1.502;2022-08-01T04:27:11;662.25;;;613.35;;
49252;SDS011;35103;47.952;-1.502;2022-08-01T04:29:39;678.22;;;625.50;;
49252;SDS011;35103;47.952;-1.502;2022-08-01T04:32:07;630.58;;;582.25;;
49252;SDS011;35103;47.952;-1.502;2022-08-01T04:34:36;626.83;;;580.45;;
49252;SDS011;35103;47.952;-1.502;2022-08-01T04:37:04;659.28;;;609.50;;
49252;SDS011;35103;47.952;-1.502;2022-08-01T04:39:32;723.22;;;664.17;;
49252;SDS011;35103;47.952;-1.502;2022-08-01T04:41:59;618.75;;;571.92;;
49252;SDS011;35103;47.952;-1.502;2022-08-01T04:44:25;799.20;;;731.60;;
49252;SDS011;35103;47.952;-1.502;2022-08-01T04:46:51;601.13;;;556.97;;
49252;SDS011;35103;47.952;-1.502;2022-08-01T04:49:18;625.92;;;577.92;;
49252;SDS011;35103;47.952;-1.502;2022-08-01T04:51:50;627.20;;;579.17;;
49252;SDS011;35103;47.952;-1.502;2022-08-01T04:54:17;611.47;;;564.78;;
49252;SDS011;35103;47.952;-1.502;2022-08-01T04:56:43;728.40;;;670.33;;
49252;SDS011;35103;47.952;-1.502;2022-08-01T04:59:08;736.92;;;677.08;;
49252;SDS011;35103;47.952;-1.502;2022-08-01T05:01:34;679.13;;;626.17;;
49252;SDS011;35103;47.952;-1.502;2022-08-01T05:04:00;632.28;;;583.17;;
49252;SDS011;35103;47.952;-1.502;2022-08-01T05:06:25;677.65;;;624.53;;
49252;SDS011;35103;47.952;-1.502;2022-08-01T05:08:51;595.95;;;550.83;;
49252;SDS011;35103;47.952;-1.502;2022-08-01T05:11:16;565.80;;;524.67;;
49252;SDS011;35103;47.952;-1.502;2022-08-01T05:13:42;682.22;;;627.58;;
49252;SDS011;35103;47.952;-1.502;2022-08-01T05:16:07;617.92;;;568.75;;
49252;SDS011;35103;47.952;-1.502;2022-08-01T05:18:33;585.35;;;540.22;;
49252;SDS011;35103;47.952;-1.502;2022-08-01T05:20:59;702.47;;;646.20;;
49252;SDS011;35103;47.952;-1.502;2022-08-01T05:23:25;616.03;;;569.55;;
49252;SDS011;35103;47.952;-1.502;2022-08-01T05:25:51;600.83;;;555.58;;
49252;SDS011;35103;47.952;-1.502;2022-08-01T05:28:16;647.45;;;597.70;;
49252;SDS011;35103;47.952;-1.502;2022-08-01T05:30:42;678.33;;;625.17;;
49252;SDS011;35103;47.952;-1.502;2022-08-01T05:33:07;682.08;;;630.10;;
49252;SDS011;35103;47.952;-1.502;2022-08-01T05:35:33;671.05;;;617.45;;
49252;SDS011;35103;47.952;-1.502;2022-08-01T05:37:58;612.50;;;566.70;;
49252;SDS011;35103;47.952;-1.502;2022-08-01T05:40:24;730.85;;;672.72;;
49252;SDS011;35103;47.952;-1.502;2022-08-01T05:42:50;605.47;;;559.45;;
49252;SDS011;35103;47.952;-1.502;2022-08-01T05:45:15;629.33;;;581.42;;
49252;SDS011;35103;47.952;-1.502;2022-08-01T05:47:41;675.75;;;625.10;;
49252;SDS011;35103;47.952;-1.502;2022-08-01T05:50:07;633.83;;;586.65;;
49252;SDS011;35103;47.952;-1.502;2022-08-01T05:52:33;689.85;;;637.67;;
49252;SDS011;35103;47.952;-1.502;2022-08-01T05:54:58;662.03;;;609.55;;
49252;SDS011;35103;47.952;-1.502;2022-08-01T05:57:24;633.33;;;583.95;;
49252;SDS011;35103;47.952;-1.502;2022-08-01T05:59:49;640.60;;;590.58;;
49252;SDS011;35103;47.952;-1.502;2022-08-01T06:02:15;686.35;;;632.78;;
49252;SDS011;35103;47.952;-1.502;2022-08-01T06:04:40;683.72;;;629.42;;
49252;SDS011;35103;47.952;-1.502;2022-08-01T06:07:06;654.10;;;605.80;;
49252;SDS011;35103;47.952;-1.502;2022-08-01T06:09:31;637.85;;;591.92;;
49252;SDS011;35103;47.952;-1.502;2022-08-01T06:11:57;650.70;;;602.33;;
49252;SDS011;35103;47.952;-1.502;2022-08-01T06:14:23;731.25;;;672.55;;
49252;SDS011;35103;47.952;-1.502;2022-08-01T06:16:48;668.75;;;617.78;;
49252;SDS011;35103;47.952;-1.502;2022-08-01T06:19:14;596.05;;;553.00;;
49252;SDS011;35103;47.952;-1.502;2022-08-01T06:21:39;667.92;;;619.17;;
49252;SDS011;35103;47.952;-1.502;2022-08-01T06:24:05;656.15;;;606.22;;
49252;SDS011;35103;47.952;-1.502;2022-08-01T06:26:30;725.35;;;666.65;;
49252;SDS011;35103;47.952;-1.502;2022-08-01T06:28:56;657.47;;;608.53;;
49252;SDS011;35103;47.952;-1.502;2022-08-01T06:31:22;631.28;;;583.22;;
49252;SDS011;35103;47.952;-1.502;2022-08-01T06:33:47;700.85;;;643.70;;
49252;SDS011;35103;47.952;-1.502;2022-08-01T06:36:13;654.50;;;606.25;;
49252;SDS011;35103;47.952;-1.502;2022-08-01T06:38:38;685.97;;;632.08;;
49252;SDS011;35103;47.952;-1.502;2022-08-01T06:41:04;721.17;;;662.15;;
49252;SDS011;35103;47.952;-1.502;2022-08-01T06:43:29;751.45;;;690.67;;
49252;SDS011;35103;47.952;-1.502;2022-08-01T06:45:55;674.03;;;620.55;;
49252;SDS011;35103;47.952;-1.502;2022-08-01T06:48:20;620.58;;;572.17;;
49252;SDS011;35103;47.952;-1.502;2022-08-01T06:50:46;712.97;;;653.45;;
49252;SDS011;35103;47.952;-1.502;2022-08-01T06:53:11;682.00;;;624.97;;
49252;SDS011;35103;47.952;-1.502;2022-08-01T06:55:37;652.25;;;602.10;;
49252;SDS011;35103;47.952;-1.502;2022-08-01T06:58:03;662.15;;;611.10;;
49252;SDS011;35103;47.952;-1.502;2022-08-01T07:00:30;687.20;;;633.00;;
49252;SDS011;35103;47.952;-1.502;2022-08-01T07:02:57;676.85;;;624.45;;
49252;SDS011;35103;47.952;-1.502;2022-08-01T07:05:23;745.92;;;686.25;;
49252;SDS011;35103;47.952;-1.502;2022-08-01T07:07:49;603.70;;;559.85;;
49252;SDS011;35103;47.952;-1.502;2022-08-01T07:10:14;609.08;;;563.22;;
49252;SDS011;35103;47.952;-1.502;2022-08-01T07:12:40;657.75;;;608.03;;
49252;SDS011;35103;47.952;-1.502;2022-08-01T07:15:06;679.03;;;625.10;;
49252;SDS011;35103;47.952;-1.502;2022-08-01T07:17:40;682.55;;;630.90;;
49252;SDS011;35103;47.952;-1.502;2022-08-01T07:20:07;734.75;;;678.10;;
49252;SDS011;35103;47.952;-1.502;2022-08-01T07:22:34;676.22;;;625.60;;
49252;SDS011;35103;47.952;-1.502;2022-08-01T07:25:00;713.60;;;657.72;;
49252;SDS011;35103;47.952;-1.502;2022-08-01T07:27:25;734.90;;;679.03;;
49252;SDS011;35103;47.952;-1.502;2022-08-01T07:29:51;692.88;;;639.50;;
49252;SDS011;35103;47.952;-1.502;2022-08-01T07:32:16;719.92;;;663.13;;
49252;SDS011;35103;47.952;-1.502;2022-08-01T07:34:42;596.88;;;552.22;;
49252;SDS011;35103;47.952;-1.502;2022-08-01T07:37:08;692.72;;;640.55;;
49252;SDS011;35103;47.952;-1.502;2022-08-01T07:39:33;656.08;;;605.85;;
49252;SDS011;35103;47.952;-1.502;2022-08-01T07:41:59;630.47;;;580.67;;
49252;SDS011;35103;47.952;-1.502;2022-08-01T07:44:24;677.28;;;625.78;;
49252;SDS011;35103;47.952;-1.502;2022-08-01T07:46:50;743.00;;;684.45;;
49252;SDS011;35103;47.952;-1.502;2022-08-01T07:49:15;721.30;;;668.47;;
49252;SDS011;35103;47.952;-1.502;2022-08-01T07:51:41;739.78;;;682.20;;
49252;SDS011;35103;47.952;-1.502;2022-08-01T07:54:07;629.55;;;579.70;;
49252;SDS011;35103;47.952;-1.502;2022-08-01T07:56:32;674.90;;;624.67;;
49252;SDS011;35103;47.952;-1.502;2022-08-01T07:58:58;663.05;;;612.38;;
49252;SDS011;35103;47.952;-1.502;2022-08-01T08:01:23;631.70;;;582.85;;
49252;SDS011;35103;47.952;-1.502;2022-08-01T08:03:49;735.45;;;675.67;;
49252;SDS011;35103;47.952;-1.502;2022-08-01T08:06:15;710.05;;;651.65;;
49252;SDS011;35103;47.952;-1.502;2022-08-01T08:08:40;780.17;;;713.40;;
49252;SDS011;35103;47.952;-1.502;2022-08-01T08:11:06;784.28;;;713.97;;
49252;SDS011;35103;47.952;-1.502;2022-08-01T08:13:31;657.95;;;608.83;;
49252;SDS011;35103;47.952;-1.502;2022-08-01T08:15:57;670.35;;;615.45;;
49252;SDS011;35103;47.952;-1.502;2022-08-01T08:18:22;698.88;;;642.22;;
49252;SDS011;35103;47.952;-1.502;2022-08-01T08:20:48;692.00;;;635.65;;
49252;SDS011;35103;47.952;-1.502;2022-08-01T08:23:13;764.17;;;703.08;;
49252;SDS011;35103;47.952;-1.502;2022-08-01T08:25:39;733.13;;;674.80;;
49252;SDS011;35103;47.952;-1.502;2022-08-01T08:28:04;717.60;;;659.38;;
49252;SDS011;35103;47.952;-1.502;2022-08-01T08:30:30;755.40;;;686.50;;
49252;SDS011;35103;47.952;-1.502;2022-08-01T08:32:56;860.45;;;777.60;;
49252;SDS011;35103;47.952;-1.502;2022-08-01T08:35:21;639.15;;;590.17;;
49252;SDS011;35103;47.952;-1.502;2022-08-01T08:37:47;686.97;;;631.20;;
49252;SDS011;35103;47.952;-1.502;2022-08-01T08:40:12;729.10;;;672.45;;
49252;SDS011;35103;47.952;-1.502;2022-08-01T08:42:40;691.50;;;637.05;;
49252;SDS011;35103;47.952;-1.502;2022-08-01T08:45:06;729.70;;;674.38;;
49252;SDS011;35103;47.952;-1.502;2022-08-01T08:47:31;734.10;;;675.42;;
49252;SDS011;35103;47.952;-1.502;2022-08-01T08:49:59;790.13;;;727.67;;
49252;SDS011;35103;47.952;-1.502;2022-08-01T08:52:26;725.28;;;669.63;;
49252;SDS011;35103;47.952;-1.502;2022-08-01T08:54:52;734.25;;;678.42;;
49252;SDS011;35103;47.952;-1.502;2022-08-01T08:57:20;727.83;;;670.10;;
49252;SDS011;35103;47.952;-1.502;2022-08-01T08:59:46;809.08;;;745.00;;
49252;SDS011;35103;47.952;-1.502;2022-08-01T09:02:12;724.45;;;669.53;;
49252;SDS011;35103;47.952;-1.502;2022-08-01T09:04:38;686.22;;;633.33;;
49252;SDS011;35103;47.952;-1.502;2022-08-01T09:07:04;730.15;;;671.15;;
49252;SDS011;35103;47.952;-1.502;2022-08-01T09:09:30;711.20;;;658.15;;
49252;SDS011;35103;47.952;-1.502;2022-08-01T09:11:57;717.17;;;664.30;;
49252;SDS011;35103;47.952;-1.502;2022-08-01T09:14:22;723.38;;;659.15;;
49252;SDS011;35103;47.952;-1.502;2022-08-01T09:17:03;747.78;;;689.97;;
49252;SDS011;35103;47.952;-1.502;2022-08-01T09:19:37;713.10;;;657.83;;
49252;SDS011;35103;47.952;-1.502;2022-08-01T09:22:04;709.40;;;654.63;;
49252;SDS011;35103;47.952;-1.502;2022-08-01T09:24:32;769.65;;;712.05;;
49252;SDS011;35103;47.952;-1.502;2022-08-01T09:26:59;715.88;;;662.83;;
49252;SDS011;35103;47.952;-1.502;2022-08-01T09:29:30;823.60;;;755.72;;
49252;SDS011;35103;47.952;-1.502;2022-08-01T09:31:56;692.95;;;640.63;;
49252;SDS011;35103;47.952;-1.502;2022-08-01T09:34:28;776.33;;;714.17;;
49252;SDS011;35103;47.952;-1.502;2022-08-01T09:36:55;768.42;;;706.00;;
49252;SDS011;35103;47.952;-1.502;2022-08-01T09:39:30;803.60;;;738.10;;
49252;SDS011;35103;47.952;-1.502;2022-08-01T09:44:48;713.85;;;659.05;;
49252;SDS011;35103;47.952;-1.502;2022-08-01T09:47:14;873.10;;;799.28;;
49252;SDS011;35103;47.952;-1.502;2022-08-01T09:49:40;695.53;;;641.33;;
49252;SDS011;35103;47.952;-1.502;2022-08-01T09:52:10;722.97;;;666.10;;
49252;SDS011;35103;47.952;-1.502;2022-08-01T09:54:37;705.88;;;647.60;;
49252;SDS011;35103;47.952;-1.502;2022-08-01T09:57:16;788.22;;;724.83;;
49252;SDS011;35103;47.952;-1.502;2022-08-01T09:59:44;737.92;;;681.25;;
49252;SDS011;35103;47.952;-1.502;2022-08-01T10:02:25;809.15;;;744.40;;
49252;SDS011;35103;47.952;-1.502;2022-08-01T10:04:53;781.70;;;721.67;;
49252;SDS011;35103;47.952;-1.502;2022-08-01T10:07:19;779.08;;;717.15;;
49252;SDS011;35103;47.952;-1.502;2022-08-01T10:09:45;789.65;;;722.47;;
49252;SDS011;35103;47.952;-1.502;2022-08-01T10:12:12;802.15;;;742.33;;
49252;SDS011;35103;47.952;-1.502;2022-08-01T10:14:40;742.08;;;684.25;;
49252;SDS011;35103;47.952;-1.502;2022-08-01T10:17:07;698.70;;;644.28;;
49252;SDS011;35103;47.952;-1.502;2022-08-01T10:19:35;895.80;;;813.75;;
49252;SDS011;35103;47.952;-1.502;2022-08-01T10:22:01;795.03;;;729.88;;
49252;SDS011;35103;47.952;-1.502;2022-08-01T10:24:32;777.72;;;717.78;;
49252;SDS011;35103;47.952;-1.502;2022-08-01T10:27:02;787.78;;;721.70;;
49252;SDS011;35103;47.952;-1.502;2022-08-01T10:29:31;786.65;;;720.30;;
49252;SDS011;35103;47.952;-1.502;2022-08-01T10:32:01;794.80;;;732.47;;
49252;SDS011;35103;47.952;-1.502;2022-08-01T10:34:29;721.78;;;667.78;;
49252;SDS011;35103;47.952;-1.502;2022-08-01T10:36:56;783.25;;;723.65;;
49252;SDS011;35103;47.952;-1.502;2022-08-01T10:39:22;809.78;;;745.63;;
49252;SDS011;35103;47.952;-1.502;2022-08-01T10:41:48;741.30;;;680.15;;
49252;SDS011;35103;47.952;-1.502;2022-08-01T10:44:14;813.40;;;750.22;;
49252;SDS011;35103;47.952;-1.502;2022-08-01T10:46:42;742.25;;;682.20;;
49252;SDS011;35103;47.952;-1.502;2022-08-01T10:49:14;792.70;;;730.22;;
49252;SDS011;35103;47.952;-1.502;2022-08-01T10:51:42;790.95;;;727.58;;
49252;SDS011;35103;47.952;-1.502;2022-08-01T10:54:10;823.95;;;760.22;;
49252;SDS011;35103;47.952;-1.502;2022-08-01T10:59:14;799.97;;;729.65;;
49252;SDS011;35103;47.952;-1.502;2022-08-01T11:02:04;773.15;;;713.13;;
49252;SDS011;35103;47.952;-1.502;2022-08-01T11:07:23;799.05;;;738.70;;
49252;SDS011;35103;47.952;-1.502;2022-08-01T11:10:04;807.22;;;745.00;;
49252;SDS011;35103;47.952;-1.502;2022-08-01T11:12:40;753.92;;;695.25;;
49252;SDS011;35103;47.952;-1.502;2022-08-01T11:17:45;756.53;;;696.05;;
49252;SDS011;35103;47.952;-1.502;2022-08-01T11:20:13;828.00;;;760.60;;
49252;SDS011;35103;47.952;-1.502;2022-08-01T11:25:25;791.60;;;728.55;;
49252;SDS011;35103;47.952;-1.502;2022-08-01T11:33:14;781.67;;;719.30;;
49252;SDS011;35103;47.952;-1.502;2022-08-01T11:38:41;803.90;;;741.28;;
49252;SDS011;35103;47.952;-1.502;2022-08-01T11:41:34;832.20;;;765.00;;
49252;SDS011;35103;47.952;-1.502;2022-08-01T11:44:03;827.53;;;761.08;;
49252;SDS011;35103;47.952;-1.502;2022-08-01T11:52:06;849.10;;;782.17;;
49252;SDS011;35103;47.952;-1.502;2022-08-01T11:54:35;855.90;;;777.97;;
49252;SDS011;35103;47.952;-1.502;2022-08-01T11:57:09;840.80;;;769.13;;
49252;SDS011;35103;47.952;-1.502;2022-08-01T12:00:04;821.53;;;757.78;;
49252;SDS011;35103;47.952;-1.502;2022-08-01T12:02:40;816.85;;;750.15;;
49252;SDS011;35103;47.952;-1.502;2022-08-01T12:05:12;828.60;;;763.58;;
49252;SDS011;35103;47.952;-1.502;2022-08-01T12:07:40;875.50;;;803.13;;
49252;SDS011;35103;47.952;-1.502;2022-08-01T12:10:13;911.60;;;818.13;;
49252;SDS011;35103;47.952;-1.502;2022-08-01T12:12:47;801.38;;;735.63;;
49252;SDS011;35103;47.952;-1.502;2022-08-01T12:15:14;810.85;;;747.10;;
49252;SDS011;35103;47.952;-1.502;2022-08-01T12:17:41;819.15;;;756.47;;
49252;SDS011;35103;47.952;-1.502;2022-08-01T12:20:18;830.95;;;758.95;;
49252;SDS011;35103;47.952;-1.502;2022-08-01T12:22:45;769.13;;;703.05;;
49252;SDS011;35103;47.952;-1.502;2022-08-01T12:25:12;801.42;;;735.92;;
49252;SDS011;35103;47.952;-1.502;2022-08-01T12:27:41;845.20;;;772.38;;
49252;SDS011;35103;47.952;-1.502;2022-08-01T12:30:09;811.13;;;744.80;;
49252;SDS011;35103;47.952;-1.502;2022-08-01T12:32:37;825.28;;;758.05;;
49252;SDS011;35103;47.952;-1.502;2022-08-01T12:35:08;814.53;;;749.28;;
49252;SDS011;35103;47.952;-1.502;2022-08-01T12:40:09;859.55;;;783.25;;
49252;SDS011;35103;47.952;-1.502;2022-08-01T12:42:37;812.88;;;750.80;;
49252;SDS011;35103;47.952;-1.502;2022-08-01T12:45:04;814.22;;;747.47;;
49252;SDS011;35103;47.952;-1.502;2022-08-01T12:47:33;800.15;;;736.60;;
49252;SDS011;35103;47.952;-1.502;2022-08-01T12:50:00;764.20;;;702.33;;
49252;SDS011;35103;47.952;-1.502;2022-08-01T12:52:26;776.42;;;714.13;;
49252;SDS011;35103;47.952;-1.502;2022-08-01T12:57:41;815.92;;;751.85;;
49252;SDS011;35103;47.952;-1.502;2022-08-01T13:00:09;843.55;;;774.28;;
49252;SDS011;35103;47.952;-1.502;2022-08-01T13:02:49;859.70;;;781.10;;
49252;SDS011;35103;47.952;-1.502;2022-08-01T13:05:25;805.65;;;738.40;;
49252;SDS011;35103;47.952;-1.502;2022-08-01T13:07:51;834.28;;;757.95;;
49252;SDS011;35103;47.952;-1.502;2022-08-01T13:10:26;821.97;;;757.88;;
49252;SDS011;35103;47.952;-1.502;2022-08-01T13:12:56;826.40;;;759.97;;
49252;SDS011;35103;47.952;-1.502;2022-08-01T13:15:27;848.63;;;777.72;;
49252;SDS011;35103;47.952;-1.502;2022-08-01T13:17:54;813.47;;;746.78;;
49252;SDS011;35103;47.952;-1.502;2022-08-01T13:20:23;867.03;;;796.25;;
49252;SDS011;35103;47.952;-1.502;2022-08-01T13:23:10;856.58;;;781.03;;
49252;SDS011;35103;47.952;-1.502;2022-08-01T13:25:50;798.08;;;733.53;;
49252;SDS011;35103;47.952;-1.502;2022-08-01T13:28:23;881.30;;;807.65;;
49252;SDS011;35103;47.952;-1.502;2022-08-01T13:30:51;838.85;;;770.08;;
49252;SDS011;35103;47.952;-1.502;2022-08-01T13:33:24;870.83;;;797.95;;
49252;SDS011;35103;47.952;-1.502;2022-08-01T13:35:52;837.03;;;768.85;;
49252;SDS011;35103;47.952;-1.502;2022-08-01T13:38:21;830.60;;;759.50;;
49252;SDS011;35103;47.952;-1.502;2022-08-01T13:40:47;847.92;;;779.20;;
49252;SDS011;35103;47.952;-1.502;2022-08-01T13:43:12;836.88;;;768.03;;
49252;SDS011;35103;47.952;-1.502;2022-08-01T13:45:39;861.50;;;786.03;;
49252;SDS011;35103;47.952;-1.502;2022-08-01T13:48:05;868.22;;;794.15;;
49252;SDS011;35103;47.952;-1.502;2022-08-01T13:50:31;832.25;;;765.88;;
49252;SDS011;35103;47.952;-1.502;2022-08-01T13:52:56;846.22;;;775.05;;
49252;SDS011;35103;47.952;-1.502;2022-08-01T13:55:22;806.55;;;736.70;;
49252;SDS011;35103;47.952;-1.502;2022-08-01T13:57:48;853.25;;;784.45;;
49252;SDS011;35103;47.952;-1.502;2022-08-01T14:00:13;807.65;;;744.95;;
49252;SDS011;35103;47.952;-1.502;2022-08-01T14:02:39;775.97;;;711.22;;
49252;SDS011;35103;47.952;-1.502;2022-08-01T14:05:05;824.50;;;753.35;;
49252;SDS011;35103;47.952;-1.502;2022-08-01T14:07:31;838.97;;;770.50;;
49252;SDS011;35103;47.952;-1.502;2022-08-01T14:09:56;827.28;;;756.65;;
49252;SDS011;35103;47.952;-1.502;2022-08-01T14:12:22;816.80;;;752.15;;
49252;SDS011;35103;47.952;-1.502;2022-08-01T14:14:48;849.42;;;775.17;;
49252;SDS011;35103;47.952;-1.502;2022-08-01T14:17:13;879.53;;;811.92;;
49252;SDS011;35103;47.952;-1.502;2022-08-01T14:19:39;849.95;;;782.38;;
49252;SDS011;35103;47.952;-1.502;2022-08-01T14:22:04;818.42;;;752.95;;
49252;SDS011;35103;47.952;-1.502;2022-08-01T14:24:30;839.38;;;772.70;;
49252;SDS011;35103;47.952;-1.502;2022-08-01T14:26:55;842.42;;;774.17;;
49252;SDS011;35103;47.952;-1.502;2022-08-01T14:29:21;836.13;;;767.63;;
49252;SDS011;35103;47.952;-1.502;2022-08-01T14:31:46;854.85;;;789.97;;
49252;SDS011;35103;47.952;-1.502;2022-08-01T14:34:12;796.95;;;732.60;;
49252;SDS011;35103;47.952;-1.502;2022-08-01T14:36:38;825.10;;;761.65;;
49252;SDS011;35103;47.952;-1.502;2022-08-01T14:39:03;839.33;;;770.20;;